Time;durP1;ratioP1;P1;durP2;ratioP2;P2;SDS_P1;SDS_P2;PMS_P1;PMS_P2;Temp;Humidity;BMP_temperature;BMP_pressure;BME280_temperature;BME280_humidity;BME280_pressure;Samples;Min_cycle;Max_cycle;Signal;HPM_P1;HPM_P2
2022/02/11 00:00:53;;;;;;;12.98;3.47;;;;;;;;;;4941372;28;20059;-66
2022/02/11 00:08:51;;;;;;;10.05;3.03;;;;;;;;;;4921649;28;20048;-66
2022/02/11 00:11:33;;;;;;;8.60;2.92;;;;;;;;;;4953238;28;20411;-66
2022/02/11 00:14:06;;;;;;;11.75;3.20;;;;;;;;;;4953386;28;20407;-65
2022/02/11 00:16:38;;;;;;;7.63;3.25;;;;;;;;;;4937706;28;20059;-65
2022/02/11 00:19:11;;;;;;;5.53;2.42;;;;;;;;;;4953323;28;20067;-65
2022/02/11 00:21:42;;;;;;;9.75;3.03;;;;;;;;;;4914862;29;20075;-65
2022/02/11 00:24:13;;;;;;;7.50;2.95;;;;;;;;;;4915160;29;20064;-65
2022/02/11 00:26:54;;;;;;;9.95;2.50;;;;;;;;;;4883562;29;20056;-66
2022/02/11 00:37:51;;;;;;;9.55;2.90;;;;;;;;;;4914708;29;20108;-65
2022/02/11 00:43:55;;;;;;;6.78;2.53;;;;;;;;;;4914589;29;20059;-65
2022/02/11 01:03:26;;;;;;;13.32;2.78;;;;;;;;;;4876377;29;20525;-65
2022/02/11 01:05:48;;;;;;;11.35;3.13;;;;;;;;;;4876482;29;20589;-65
2022/02/11 01:08:19;;;;;;;6.63;2.90;;;;;;;;;;4845604;29;20053;-66
2022/02/11 01:10:49;;;;;;;14.50;2.75;;;;;;;;;;4876730;29;20053;-66
2022/02/11 01:13:19;;;;;;;11.85;2.70;;;;;;;;;;4860567;29;20045;-66
2022/02/11 01:15:56;;;;;;;10.82;3.42;;;;;;;;;;4876382;29;20061;-66
2022/02/11 01:18:27;;;;;;;7.78;2.45;;;;;;;;;;4876665;29;20061;-66
2022/02/11 01:21:04;;;;;;;10.52;2.75;;;;;;;;;;4876499;29;20057;-65
2022/02/11 01:37:31;;;;;;;6.28;2.83;;;;;;;;;;4825904;29;20050;-66
2022/02/11 01:40:53;;;;;;;5.80;2.78;;;;;;;;;;4844156;29;20058;-66
2022/02/11 01:48:51;;;;;;;8.18;2.35;;;;;;;;;;4875963;29;20437;-66
2022/02/11 02:10:52;;;;;;;14.00;2.88;;;;;;;;;;4856907;29;20053;-64
2022/02/11 02:24:50;;;;;;;8.65;2.65;;;;;;;;;;4856880;29;20061;-65
2022/02/11 02:27:42;;;;;;;6.55;3.17;;;;;;;;;;4855479;29;20054;-65
2022/02/11 03:53:29;;;;;;;8.73;3.55;;;;;;;;;;4892814;29;20441;-66
2022/02/11 03:59:25;;;;;;;13.13;3.63;;;;;;;;;;4893240;29;20436;-66
2022/02/11 04:25:23;;;;;;;;;;;;;;;;;;;;;
2022/02/11 04:55:07;;;;;;;12.88;5.30;;;;;;;;;;4876719;29;20057;-65
2022/02/11 05:00:26;;;;;;;14.05;5.15;;;;;;;;;;4913889;29;20062;-65
2022/02/11 05:02:57;;;;;;;12.50;4.78;;;;;;;;;;4914158;29;20063;-66
2022/02/11 05:05:28;;;;;;;12.60;4.85;;;;;;;;;;4896503;29;20065;-64
2022/02/11 05:08:01;;;;;;;9.93;3.80;;;;;;;;;;4911096;29;20056;-66
2022/02/11 05:10:32;;;;;;;11.30;3.78;;;;;;;;;;4898511;29;20056;-65
2022/02/11 05:13:04;;;;;;;9.32;4.95;;;;;;;;;;4875038;29;20052;-66
2022/02/11 05:15:34;;;;;;;16.48;6.60;;;;;;;;;;4914215;29;20056;-66
2022/02/11 05:18:06;;;;;;;16.58;6.32;;;;;;;;;;4914113;29;20059;-66
2022/02/11 05:20:37;;;;;;;17.52;7.55;;;;;;;;;;4894785;29;20048;-65
2022/02/11 05:23:09;;;;;;;16.58;6.55;;;;;;;;;;4880110;29;20500;-66
2022/02/11 05:25:41;;;;;;;13.20;4.32;;;;;;;;;;4848372;29;20048;-66
2022/02/11 05:28:13;;;;;;;10.95;4.35;;;;;;;;;;4848762;29;20064;-66
2022/02/11 05:30:43;;;;;;;10.90;3.58;;;;;;;;;;4894752;29;20061;-66
2022/02/11 05:33:15;;;;;;;7.95;3.97;;;;;;;;;;4910156;29;20060;-65
2022/02/11 05:35:45;;;;;;;9.30;3.40;;;;;;;;;;4913573;29;20059;-64
2022/02/11 05:38:15;;;;;;;13.15;3.88;;;;;;;;;;4882285;29;20063;-66
2022/02/11 05:40:46;;;;;;;12.60;4.18;;;;;;;;;;4913845;29;20106;-66
2022/02/11 05:43:17;;;;;;;9.73;4.50;;;;;;;;;;4913744;29;20068;-65
2022/02/11 05:45:47;;;;;;;10.88;4.35;;;;;;;;;;4894768;29;20060;-65
2022/02/11 05:48:19;;;;;;;11.48;4.30;;;;;;;;;;4863396;29;20104;-66
2022/02/11 05:50:50;;;;;;;9.40;4.28;;;;;;;;;;4868228;29;20066;-65
2022/02/11 05:53:20;;;;;;;11.50;4.55;;;;;;;;;;4917328;29;20052;-65
2022/02/11 05:55:51;;;;;;;12.98;5.53;;;;;;;;;;4900884;29;20047;-65
2022/02/11 05:58:21;;;;;;;12.38;5.43;;;;;;;;;;4963363;28;20654;-66
2022/02/11 06:00:51;;;;;;;10.95;4.68;;;;;;;;;;4951374;29;20058;-66
2022/02/11 06:03:22;;;;;;;9.23;4.28;;;;;;;;;;4935663;29;20067;-65
2022/02/11 06:05:52;;;;;;;10.70;4.28;;;;;;;;;;4951450;29;20059;-65
2022/02/11 06:08:22;;;;;;;11.68;4.28;;;;;;;;;;4951393;29;20545;-66
2022/02/11 06:10:52;;;;;;;9.43;4.25;;;;;;;;;;4951375;29;20058;-65
2022/02/11 06:13:23;;;;;;;11.65;4.43;;;;;;;;;;4935612;29;20478;-65
2022/02/11 06:15:55;;;;;;;12.13;4.80;;;;;;;;;;4912802;29;20056;-65
2022/02/11 06:18:26;;;;;;;9.70;4.32;;;;;;;;;;4912925;29;20064;-66
2022/02/11 06:20:56;;;;;;;13.85;4.68;;;;;;;;;;4913172;29;20064;-66
2022/02/11 06:23:27;;;;;;;12.63;4.22;;;;;;;;;;4922827;29;20048;-66
2022/02/11 06:25:58;;;;;;;8.10;4.35;;;;;;;;;;4932071;29;20059;-65
2022/02/11 06:28:28;;;;;;;11.43;3.97;;;;;;;;;;4901070;29;20086;-66
2022/02/11 06:30:58;;;;;;;11.20;3.88;;;;;;;;;;4931421;29;20514;-66
2022/02/11 06:33:28;;;;;;;9.13;4.28;;;;;;;;;;4931819;29;20059;-65
2022/02/11 06:35:59;;;;;;;8.75;4.78;;;;;;;;;;4912826;29;20060;-66
2022/02/11 06:38:30;;;;;;;11.52;5.30;;;;;;;;;;4931689;29;20066;-66
2022/02/11 06:41:00;;;;;;;12.02;5.00;;;;;;;;;;4950903;29;20208;-66
2022/02/11 06:43:31;;;;;;;9.73;4.60;;;;;;;;;;4912239;29;20059;-66
2022/02/11 06:46:02;;;;;;;13.45;5.25;;;;;;;;;;4912664;29;20052;-66
2022/02/11 06:48:33;;;;;;;11.70;5.28;;;;;;;;;;4897225;29;20060;-65
2022/02/11 06:51:04;;;;;;;13.68;4.70;;;;;;;;;;4912562;29;20041;-66
2022/02/11 06:53:36;;;;;;;12.77;5.60;;;;;;;;;;4912460;29;20067;-65
2022/02/11 06:56:06;;;;;;;11.05;5.10;;;;;;;;;;4912594;29;20059;-66
2022/02/11 06:58:36;;;;;;;9.05;5.05;;;;;;;;;;4912171;29;20067;-66
2022/02/11 07:01:07;;;;;;;8.93;4.20;;;;;;;;;;4912211;29;20083;-66
2022/02/11 07:03:39;;;;;;;16.25;4.97;;;;;;;;;;4912416;29;20115;-66
2022/02/11 07:06:09;;;;;;;9.43;4.35;;;;;;;;;;4882094;29;20060;-66
2022/02/11 07:08:39;;;;;;;10.68;4.45;;;;;;;;;;4902755;29;20508;-66
2022/02/11 07:11:10;;;;;;;10.00;5.10;;;;;;;;;;4877501;29;20056;-67
2022/02/11 07:13:40;;;;;;;8.77;4.13;;;;;;;;;;4893302;29;20063;-67
2022/02/11 07:16:11;;;;;;;8.23;4.50;;;;;;;;;;4877432;29;20053;-67
2022/02/11 07:18:42;;;;;;;7.82;3.90;;;;;;;;;;4893512;29;20052;-66
2022/02/11 07:21:12;;;;;;;9.95;4.40;;;;;;;;;;4903643;29;20060;-66
2022/02/11 07:23:43;;;;;;;9.18;4.00;;;;;;;;;;4930888;29;20607;-66
2022/02/11 07:26:13;;;;;;;7.30;4.22;;;;;;;;;;4899774;29;20052;-66
2022/02/11 07:28:45;;;;;;;10.52;4.18;;;;;;;;;;4899386;29;20078;-66
2022/02/11 07:31:15;;;;;;;8.68;4.20;;;;;;;;;;4931048;29;20079;-66
2022/02/11 07:33:47;;;;;;;14.20;3.70;;;;;;;;;;4932787;28;20063;-66
2022/02/11 07:36:18;;;;;;;7.13;3.47;;;;;;;;;;4874277;29;20068;-66
2022/02/11 07:38:50;;;;;;;10.63;3.78;;;;;;;;;;4859341;29;20065;-65
2022/02/11 07:41:21;;;;;;;7.72;4.03;;;;;;;;;;4874627;29;20061;-65
2022/02/11 07:43:51;;;;;;;9.02;3.67;;;;;;;;;;4855657;29;20046;-65
2022/02/11 07:46:22;;;;;;;9.65;4.30;;;;;;;;;;4825580;29;20065;-66
2022/02/11 07:48:52;;;;;;;8.50;3.63;;;;;;;;;;4855974;29;20064;-66
2022/02/11 07:51:22;;;;;;;9.23;4.13;;;;;;;;;;4859209;29;20057;-66
2022/02/11 07:53:55;;;;;;;8.23;3.70;;;;;;;;;;4828378;29;20057;-66
2022/02/11 07:56:26;;;;;;;11.27;3.78;;;;;;;;;;4859321;29;20062;-65
2022/02/11 07:58:56;;;;;;;10.15;4.20;;;;;;;;;;4859233;29;20095;-66
2022/02/11 08:01:26;;;;;;;8.52;3.92;;;;;;;;;;4877713;29;20057;-65
2022/02/11 08:03:57;;;;;;;8.52;3.78;;;;;;;;;;4877652;29;20065;-66
2022/02/11 08:06:27;;;;;;;7.55;4.25;;;;;;;;;;4877695;29;20053;-67
2022/02/11 08:08:57;;;;;;;8.85;4.78;;;;;;;;;;4872410;29;20497;-66
2022/02/11 08:11:27;;;;;;;10.68;4.25;;;;;;;;;;4849869;29;20616;-66
2022/02/11 08:13:57;;;;;;;9.05;4.85;;;;;;;;;;4936214;28;20423;-67
2022/02/11 08:16:28;;;;;;;13.75;4.97;;;;;;;;;;4972783;28;20059;-66
2022/02/11 08:18:59;;;;;;;9.20;4.43;;;;;;;;;;4972585;28;20593;-66
2022/02/11 08:21:29;;;;;;;9.65;4.88;;;;;;;;;;4962969;28;20075;-66
2022/02/11 08:23:59;;;;;;;11.80;4.40;;;;;;;;;;4953343;29;20051;-66
2022/02/11 08:26:30;;;;;;;10.00;4.35;;;;;;;;;;4905746;29;20051;-66
2022/02/11 08:29:02;;;;;;;9.95;4.75;;;;;;;;;;4972600;28;20062;-66
2022/02/11 08:31:33;;;;;;;10.68;4.68;;;;;;;;;;4975885;28;20054;-66
2022/02/11 08:34:03;;;;;;;9.32;4.35;;;;;;;;;;4991750;28;20062;-66
2022/02/11 08:36:33;;;;;;;10.63;4.50;;;;;;;;;;4991814;28;20046;-66
2022/02/11 08:39:04;;;;;;;9.68;4.45;;;;;;;;;;5002962;28;20072;-66
2022/02/11 08:41:34;;;;;;;10.60;4.50;;;;;;;;;;5013564;28;20046;-65
2022/02/11 08:44:05;;;;;;;8.60;3.92;;;;;;;;;;4996608;28;20049;-66
2022/02/11 08:46:35;;;;;;;8.98;3.80;;;;;;;;;;5013595;28;20037;-66
2022/02/11 08:49:06;;;;;;;5.88;3.40;;;;;;;;;;5012538;28;20046;-66
2022/02/11 08:51:36;;;;;;;13.82;5.10;;;;;;;;;;5012171;28;20049;-66
2022/02/11 08:54:07;;;;;;;14.25;4.65;;;;;;;;;;5012255;28;20053;-66
2022/02/11 08:56:39;;;;;;;11.00;4.63;;;;;;;;;;5010981;28;20050;-66
2022/02/11 08:59:09;;;;;;;8.82;4.00;;;;;;;;;;4995275;28;20062;-66
2022/02/11 09:01:40;;;;;;;12.07;4.30;;;;;;;;;;4995065;28;20046;-66
2022/02/11 09:04:10;;;;;;;11.65;4.43;;;;;;;;;;5013137;28;20049;-66
2022/02/11 09:06:40;;;;;;;11.52;4.40;;;;;;;;;;5012998;28;20102;-66
2022/02/11 09:09:11;;;;;;;9.00;4.53;;;;;;;;;;5013174;28;20057;-65
2022/02/11 09:11:42;;;;;;;9.15;4.35;;;;;;;;;;5010850;28;20050;-66
2022/02/11 09:14:12;;;;;;;9.02;3.90;;;;;;;;;;5013039;28;20042;-66
2022/02/11 09:16:43;;;;;;;10.63;3.42;;;;;;;;;;5012800;28;20046;-66
2022/02/11 09:19:13;;;;;;;9.13;3.92;;;;;;;;;;5010429;28;20057;-66
2022/02/11 09:21:43;;;;;;;10.82;3.80;;;;;;;;;;4963093;28;20068;-66
2022/02/11 09:24:14;;;;;;;7.60;3.80;;;;;;;;;;4961938;28;20058;-65
2022/02/11 09:26:44;;;;;;;8.93;3.50;;;;;;;;;;5010513;28;20046;-66
2022/02/11 09:29:14;;;;;;;6.70;3.72;;;;;;;;;;5010491;28;20400;-66
2022/02/11 09:31:45;;;;;;;9.15;4.55;;;;;;;;;;4993567;28;20445;-66
2022/02/11 09:34:16;;;;;;;7.97;3.80;;;;;;;;;;4977680;28;20506;-66
2022/02/11 09:36:46;;;;;;;14.80;4.20;;;;;;;;;;4994002;28;20064;-66
2022/02/11 09:39:16;;;;;;;14.43;3.72;;;;;;;;;;4977631;28;21115;-66
2022/02/11 09:41:49;;;;;;;6.95;3.58;;;;;;;;;;4961614;28;20057;-66
2022/02/11 09:44:24;;;;;;;9.55;4.15;;;;;;;;;;4961501;28;20054;-66
2022/02/11 09:46:56;;;;;;;13.45;3.83;;;;;;;;;;4977394;28;20544;-66
2022/02/11 09:49:24;;;;;;;10.25;3.88;;;;;;;;;;5010071;28;20066;-67
2022/02/11 09:51:57;;;;;;;8.18;3.85;;;;;;;;;;5009720;28;20422;-66
2022/02/11 09:54:29;;;;;;;10.57;3.63;;;;;;;;;;5009876;28;20050;-66
2022/02/11 09:57:00;;;;;;;12.60;3.75;;;;;;;;;;5011017;28;20085;-66
2022/02/11 09:59:31;;;;;;;14.50;4.07;;;;;;;;;;4994317;28;20050;-66
2022/02/11 10:02:03;;;;;;;7.55;4.47;;;;;;;;;;5011979;28;20524;-66
2022/02/11 10:04:32;;;;;;;9.73;4.18;;;;;;;;;;4994152;28;20406;-67
2022/02/11 10:07:03;;;;;;;10.00;3.42;;;;;;;;;;5011875;28;20042;-67
2022/02/11 10:09:36;;;;;;;13.13;4.22;;;;;;;;;;5011923;28;20046;-66
2022/02/11 10:12:07;;;;;;;9.32;3.90;;;;;;;;;;5011586;28;20398;-65
2022/02/11 10:14:43;;;;;;;11.65;3.65;;;;;;;;;;5012327;28;20050;-66
2022/02/11 10:17:19;;;;;;;14.65;4.13;;;;;;;;;;4989560;28;20054;-66
2022/02/11 10:19:54;;;;;;;8.13;4.05;;;;;;;;;;4989598;28;20054;-66
2022/02/11 10:22:28;;;;;;;13.25;4.18;;;;;;;;;;4989443;28;20058;-67
2022/02/11 10:24:59;;;;;;;8.32;4.40;;;;;;;;;;4973906;28;20450;-66
2022/02/11 10:27:34;;;;;;;10.25;3.55;;;;;;;;;;4989350;28;20061;-66
2022/02/11 10:30:07;;;;;;;7.53;3.60;;;;;;;;;;4989702;28;20054;-67
2022/02/11 10:32:46;;;;;;;16.05;3.95;;;;;;;;;;4957796;28;20427;-67
2022/02/11 10:35:17;;;;;;;;;;;;;;;;;;4959118;28;20510;-67
2022/02/11 10:38:15;;;;;;;11.63;3.47;;;;;;;;;;4989366;28;19929;-67
2022/02/11 10:40:45;;;;;;;12.68;4.00;;;;;;;;;;4989500;28;20057;-67
2022/02/11 10:43:29;;;;;;;8.50;3.53;;;;;;;;;;4973710;28;20497;-67
2022/02/11 10:46:04;;;;;;;9.43;3.60;;;;;;;;;;4989351;28;20062;-65
2022/02/11 10:48:36;;;;;;;7.93;3.50;;;;;;;;;;4973502;28;20054;-66
2022/02/11 10:51:08;;;;;;;8.02;3.15;;;;;;;;;;4969392;28;20051;-66
2022/02/11 10:53:42;;;;;;;9.63;3.47;;;;;;;;;;4969987;28;20055;-66
2022/02/11 10:56:15;;;;;;;6.65;3.38;;;;;;;;;;4969768;28;20058;-66
2022/02/11 10:58:58;;;;;;;10.43;3.13;;;;;;;;;;4937973;28;20062;-66
2022/02/11 11:01:29;;;;;;;7.32;3.20;;;;;;;;;;4969737;28;20212;-66
2022/02/11 11:04:00;;;;;;;9.93;3.05;;;;;;;;;;4970284;28;20066;-65
2022/02/11 11:06:30;;;;;;;9.45;2.78;;;;;;;;;;4989027;28;20050;-65
2022/02/11 11:09:01;;;;;;;12.80;2.63;;;;;;;;;;4989211;28;20058;-66
2022/02/11 11:11:34;;;;;;;6.85;2.95;;;;;;;;;;4950287;29;20475;-66
2022/02/11 11:14:05;;;;;;;5.40;2.58;;;;;;;;;;4950601;29;20055;-66
2022/02/11 11:16:36;;;;;;;10.13;3.08;;;;;;;;;;4950393;29;20059;-66
2022/02/11 11:19:08;;;;;;;19.38;3.60;;;;;;;;;;4919232;29;20066;-66
2022/02/11 11:24:49;;;;;;;12.73;3.50;;;;;;;;;;4883514;29;20075;-65
2022/02/11 11:27:53;;;;;;;6.53;2.60;;;;;;;;;;4897185;29;20056;-66
2022/02/11 11:30:33;;;;;;;6.68;2.70;;;;;;;;;;4881404;29;20060;-66
2022/02/11 11:33:10;;;;;;;5.65;2.22;;;;;;;;;;4897124;29;20535;-66
2022/02/11 11:35:45;;;;;;;6.20;2.70;;;;;;;;;;4896592;29;20057;-66
2022/02/11 11:38:22;;;;;;;6.63;2.65;;;;;;;;;;4896980;29;20064;-66
2022/02/11 11:41:14;;;;;;;8.07;2.85;;;;;;;;;;4850190;29;20052;-67
2022/02/11 11:43:49;;;;;;;5.75;2.67;;;;;;;;;;4896748;29;20075;-67
2022/02/11 11:46:20;;;;;;;6.90;2.75;;;;;;;;;;4896936;29;20084;-67
2022/02/11 11:49:12;;;;;;;7.32;2.58;;;;;;;;;;4896424;29;20432;-67
2022/02/11 11:51:45;;;;;;;3.90;2.40;;;;;;;;;;4896660;29;20065;-67
2022/02/11 11:54:21;;;;;;;8.10;2.33;;;;;;;;;;4896748;29;20516;-68
2022/02/11 11:56:54;;;;;;;8.15;2.75;;;;;;;;;;4896542;29;20064;-67
2022/02/11 11:59:29;;;;;;;5.47;2.30;;;;;;;;;;4896879;29;20041;-66
2022/02/11 12:02:13;;;;;;;5.60;2.35;;;;;;;;;;4886655;29;20083;-67
2022/02/11 12:04:43;;;;;;;9.50;2.53;;;;;;;;;;4878198;29;20068;-67
2022/02/11 12:07:16;;;;;;;9.65;2.72;;;;;;;;;;4902915;29;20060;-65
2022/02/11 12:09:50;;;;;;;4.47;2.05;;;;;;;;;;4899569;29;20599;-66
2022/02/11 12:12:23;;;;;;;4.10;2.20;;;;;;;;;;4883995;29;20055;-66
2022/02/11 12:14:56;;;;;;;9.07;2.58;;;;;;;;;;4876994;29;20049;-67
2022/02/11 12:17:27;;;;;;;6.45;2.35;;;;;;;;;;4877757;29;20430;-67
2022/02/11 12:19:58;;;;;;;6.45;2.35;;;;;;;;;;4892460;29;20057;-66
2022/02/11 12:22:31;;;;;;;6.70;2.67;;;;;;;;;;4892984;29;20197;-67
2022/02/11 12:27:53;;;;;;;4.45;2.42;;;;;;;;;;4896240;29;20072;-66
2022/02/11 12:30:25;;;;;;;8.73;3.42;;;;;;;;;;4896251;29;20057;-67
2022/02/11 12:32:59;;;;;;;10.68;4.05;;;;;;;;;;4896061;29;20181;-66
2022/02/11 12:35:35;;;;;;;9.82;5.22;;;;;;;;;;4895956;29;20064;-66
2022/02/11 12:38:05;;;;;;;7.22;3.20;;;;;;;;;;4926767;29;20057;-67
2022/02/11 12:40:41;;;;;;;7.70;2.72;;;;;;;;;;4947787;29;20523;-67
2022/02/11 12:43:13;;;;;;;4.78;2.83;;;;;;;;;;4937365;29;20059;-67
2022/02/11 12:45:44;;;;;;;7.30;2.55;;;;;;;;;;4952466;29;20062;-67
2022/02/11 12:48:15;;;;;;;5.40;2.17;;;;;;;;;;4952894;29;20055;-68
2022/02/11 12:50:53;;;;;;;4.38;2.40;;;;;;;;;;4933080;29;20093;-68
2022/02/11 12:53:25;;;;;;;5.95;2.55;;;;;;;;;;4917086;29;20056;-66
2022/02/11 12:55:55;;;;;;;9.45;2.78;;;;;;;;;;4952846;29;20504;-64
2022/02/11 12:58:25;;;;;;;5.22;2.05;;;;;;;;;;4936485;29;20055;-66
2022/02/11 13:00:56;;;;;;;7.35;2.35;;;;;;;;;;4933377;29;20063;-66
2022/02/11 13:03:27;;;;;;;5.38;2.50;;;;;;;;;;4964832;28;20634;-66
2022/02/11 13:06:02;;;;;;;6.18;2.47;;;;;;;;;;4933176;29;20060;-66
2022/02/11 13:08:33;;;;;;;5.55;2.30;;;;;;;;;;4933246;29;20060;-66
2022/02/11 13:11:06;;;;;;;6.43;2.05;;;;;;;;;;4933092;29;20059;-67
2022/02/11 13:13:37;;;;;;;5.38;2.55;;;;;;;;;;4886496;29;20172;-66
2022/02/11 13:16:07;;;;;;;5.35;2.47;;;;;;;;;;4933211;29;20457;-66
2022/02/11 13:18:40;;;;;;;6.03;2.92;;;;;;;;;;4933243;29;20059;-67
2022/02/11 13:21:11;;;;;;;7.88;2.50;;;;;;;;;;4936784;29;20189;-67
2022/02/11 13:23:45;;;;;;;6.25;2.38;;;;;;;;;;4915935;29;20100;-65
2022/02/11 13:26:16;;;;;;;6.35;2.50;;;;;;;;;;4932999;29;20056;-66
2022/02/11 13:28:51;;;;;;;6.15;2.00;;;;;;;;;;4901967;29;20074;-66
2022/02/11 13:31:22;;;;;;;6.90;2.35;;;;;;;;;;4901358;29;20059;-67
2022/02/11 13:34:03;;;;;;;3.70;2.15;;;;;;;;;;4932163;28;20058;-67
2022/02/11 13:36:34;;;;;;;4.45;2.00;;;;;;;;;;4940298;28;20070;-67
2022/02/11 13:39:04;;;;;;;7.38;1.90;;;;;;;;;;4971207;28;20051;-66
2022/02/11 13:41:39;;;;;;;4.50;2.08;;;;;;;;;;4948882;28;20051;-67
2022/02/11 13:44:13;;;;;;;5.40;2.08;;;;;;;;;;4989963;28;20069;-69
2022/02/11 13:46:56;;;;;;;4.07;1.98;;;;;;;;;;4989788;28;20054;-68
2022/02/11 13:49:38;;;;;;;3.80;1.67;;;;;;;;;;4990150;28;20549;-64
2022/02/11 13:54:59;;;;;;;5.28;2.45;;;;;;;;;;4993753;28;20049;-65
2022/02/11 13:57:29;;;;;;;7.22;2.33;;;;;;;;;;5009819;28;20053;-66
2022/02/11 14:00:26;;;;;;;4.78;1.92;;;;;;;;;;5009772;28;20053;-67
2022/02/11 14:02:57;;;;;;;4.85;1.60;;;;;;;;;;4965047;28;20061;-67
2022/02/11 14:05:29;;;;;;;7.55;1.73;;;;;;;;;;4981798;28;20499;-66
2022/02/11 14:08:00;;;;;;;3.58;1.50;;;;;;;;;;4890554;28;20550;-67
2022/02/11 14:10:30;;;;;;;6.05;1.95;;;;;;;;;;4922868;28;20070;-66
2022/02/11 14:13:08;;;;;;;3.33;1.55;;;;;;;;;;4970527;28;20046;-67
2022/02/11 14:15:41;;;;;;;3.65;1.67;;;;;;;;;;4922712;28;20086;-67
2022/02/11 14:18:11;;;;;;;2.42;1.50;;;;;;;;;;4939924;28;20051;-67
2022/02/11 14:20:42;;;;;;;5.47;1.60;;;;;;;;;;4970671;28;20061;-67
2022/02/11 14:23:17;;;;;;;4.63;1.52;;;;;;;;;;4970667;28;20451;-67
2022/02/11 14:25:47;;;;;;;4.03;1.40;;;;;;;;;;4970563;28;20498;-69
2022/02/11 14:28:20;;;;;;;7.90;1.67;;;;;;;;;;4970393;28;20054;-67
2022/02/11 14:30:51;;;;;;;3.97;1.77;;;;;;;;;;4954560;28;20047;-66
2022/02/11 14:33:21;;;;;;;2.33;1.20;;;;;;;;;;4970281;28;20047;-67
2022/02/11 14:35:52;;;;;;;3.78;1.23;;;;;;;;;;4969906;28;20059;-66
2022/02/11 14:38:28;;;;;;;3.70;1.15;;;;;;;;;;4969877;28;20058;-67
2022/02/11 14:43:47;;;;;;;3.30;1.23;;;;;;;;;;4985837;28;20050;-67
2022/02/11 14:46:18;;;;;;;2.42;1.10;;;;;;;;;;4989429;28;20050;-65
2022/02/11 14:48:48;;;;;;;4.53;1.30;;;;;;;;;;4989658;28;20518;-67
2022/02/11 14:51:18;;;;;;;4.97;1.38;;;;;;;;;;4989303;28;20062;-68
2022/02/11 14:53:49;;;;;;;3.78;1.45;;;;;;;;;;4957596;28;20587;-67
2022/02/11 14:56:19;;;;;;;3.08;1.05;;;;;;;;;;4950344;28;20051;-67
2022/02/11 14:58:49;;;;;;;1.90;0.93;;;;;;;;;;4911396;29;20413;-69
2022/02/11 15:01:20;;;;;;;4.20;1.13;;;;;;;;;;4912532;29;20417;-65
2022/02/11 15:03:50;;;;;;;5.82;1.17;;;;;;;;;;4896798;29;20063;-69
2022/02/11 15:06:20;;;;;;;3.42;1.35;;;;;;;;;;4912465;29;20052;-67
2022/02/11 15:08:51;;;;;;;4.13;1.15;;;;;;;;;;4912539;29;20056;-67
2022/02/11 15:11:21;;;;;;;1.88;0.98;;;;;;;;;;4912350;29;20067;-66
2022/02/11 15:13:52;;;;;;;3.22;1.42;;;;;;;;;;4908495;29;20555;-67
2022/02/11 15:16:22;;;;;;;2.25;1.08;;;;;;;;;;4893322;29;20063;-68
2022/02/11 15:18:53;;;;;;;2.97;1.23;;;;;;;;;;4893429;29;20187;-69
2022/02/11 15:21:23;;;;;;;3.22;1.10;;;;;;;;;;4893435;29;20560;-69
2022/02/11 15:23:54;;;;;;;2.65;0.90;;;;;;;;;;4846574;29;20409;-68
2022/02/11 15:26:24;;;;;;;3.17;0.98;;;;;;;;;;4874289;29;20382;-68
2022/02/11 15:28:54;;;;;;;2.65;0.90;;;;;;;;;;4874728;29;20057;-68
2022/02/11 15:31:25;;;;;;;2.70;1.08;;;;;;;;;;4874952;29;20636;-67
2022/02/11 15:33:55;;;;;;;3.85;1.30;;;;;;;;;;4886354;29;20187;-67
2022/02/11 15:36:26;;;;;;;3.83;1.40;;;;;;;;;;4899200;29;20201;-66
2022/02/11 15:38:56;;;;;;;4.43;1.23;;;;;;;;;;4950113;29;20059;-66
2022/02/11 15:41:26;;;;;;;2.72;1.00;;;;;;;;;;4918363;29;20055;-69
2022/02/11 15:43:57;;;;;;;1.63;0.80;;;;;;;;;;4903012;29;20059;-68
2022/02/11 15:46:27;;;;;;;4.38;1.00;;;;;;;;;;4950266;29;20051;-69
2022/02/11 15:48:58;;;;;;;2.95;0.93;;;;;;;;;;4902584;29;20059;-68
2022/02/11 15:51:28;;;;;;;4.70;0.88;;;;;;;;;;4950097;29;20063;-69
2022/02/11 15:53:59;;;;;;;4.68;0.95;;;;;;;;;;4934464;29;20055;-70
2022/02/11 15:56:29;;;;;;;1.75;1.10;;;;;;;;;;4903668;29;20067;-70
2022/02/11 15:59:00;;;;;;;4.53;0.93;;;;;;;;;;4934142;29;20055;-70
2022/02/11 16:01:30;;;;;;;2.67;0.90;;;;;;;;;;4959499;28;20408;-68
2022/02/11 16:04:01;;;;;;;3.58;1.00;;;;;;;;;;4989097;28;20068;-67
2022/02/11 16:06:32;;;;;;;3.78;1.20;;;;;;;;;;5010643;28;20049;-68
2022/02/11 16:09:03;;;;;;;3.17;1.02;;;;;;;;;;5008172;28;20072;-69
2022/02/11 16:11:34;;;;;;;2.10;1.38;;;;;;;;;;5011084;28;20510;-70
2022/02/11 16:14:04;;;;;;;2.42;0.93;;;;;;;;;;5011558;28;20053;-70
2022/02/11 16:16:35;;;;;;;2.55;0.82;;;;;;;;;;4959661;28;20411;-68
2022/02/11 16:19:05;;;;;;;2.90;0.90;;;;;;;;;;4972461;28;20428;-66
2022/02/11 16:21:35;;;;;;;2.15;0.80;;;;;;;;;;4972982;28;20058;-68
2022/02/11 16:24:07;;;;;;;2.58;1.10;;;;;;;;;;4956137;28;20047;-69
2022/02/11 16:26:38;;;;;;;3.65;1.10;;;;;;;;;;4972778;28;20047;-69
2022/02/11 16:29:09;;;;;;;3.72;1.10;;;;;;;;;;4972633;28;20078;-70
2022/02/11 16:31:40;;;;;;;1.70;0.95;;;;;;;;;;4972400;28;20051;-68
2022/02/11 16:34:10;;;;;;;3.25;1.23;;;;;;;;;;4972191;28;20063;-69
2022/02/11 16:36:42;;;;;;;2.70;1.20;;;;;;;;;;4972702;28;20063;-67
2022/02/11 16:39:16;;;;;;;4.65;1.20;;;;;;;;;;4969949;28;20074;-69
2022/02/11 16:41:47;;;;;;;3.90;1.20;;;;;;;;;;4953295;29;20059;-68
2022/02/11 16:44:18;;;;;;;5.03;1.17;;;;;;;;;;4952994;29;20066;-68
2022/02/11 16:46:49;;;;;;;;;;;;;;;;;;4953616;29;20051;-66
2022/02/11 16:49:19;;;;;;;2.35;1.05;;;;;;;;;;4914458;29;19923;-68
2022/02/11 16:51:49;;;;;;;4.00;1.38;;;;;;;;;;4914569;29;20060;-68
2022/02/11 16:54:20;;;;;;;2.08;0.82;;;;;;;;;;4924947;29;20070;-70
2022/02/11 16:56:50;;;;;;;3.10;1.10;;;;;;;;;;4954775;28;20082;-69
2022/02/11 16:59:21;;;;;;;2.22;1.23;;;;;;;;;;4971918;28;20047;-70
2022/02/11 17:01:52;;;;;;;4.10;1.20;;;;;;;;;;4971871;28;20059;-69
2022/02/11 17:04:22;;;;;;;3.20;1.17;;;;;;;;;;4956572;28;20065;-70
2022/02/11 17:06:52;;;;;;;3.17;1.00;;;;;;;;;;4971946;28;20054;-68
2022/02/11 17:09:23;;;;;;;2.42;1.38;;;;;;;;;;4971802;28;20046;-68
2022/02/11 17:11:53;;;;;;;2.63;1.20;;;;;;;;;;4971933;28;20050;-67
2022/02/11 17:14:23;;;;;;;3.83;1.20;;;;;;;;;;4940225;28;20059;-68
2022/02/11 17:16:53;;;;;;;1.35;0.85;;;;;;;;;;4923775;28;20565;-67
2022/02/11 17:19:24;;;;;;;4.88;1.00;;;;;;;;;;4919990;29;20393;-68
2022/02/11 17:21:55;;;;;;;2.20;1.13;;;;;;;;;;4919838;29;20227;-68
2022/02/11 17:24:28;;;;;;;7.85;1.30;;;;;;;;;;4952169;29;20082;-68
2022/02/11 17:26:58;;;;;;;2.95;1.25;;;;;;;;;;4956556;28;20057;-67
2022/02/11 17:29:29;;;;;;;1.50;0.98;;;;;;;;;;4990947;28;20057;-68
2022/02/11 17:31:59;;;;;;;6.18;1.30;;;;;;;;;;4990838;28;20050;-66
2022/02/11 17:34:31;;;;;;;1.80;1.10;;;;;;;;;;4990476;28;20498;-67
2022/02/11 17:37:01;;;;;;;1.65;0.90;;;;;;;;;;4990810;28;20066;-67
2022/02/11 17:39:35;;;;;;;5.97;1.40;;;;;;;;;;4958378;28;20053;-67
2022/02/11 17:42:07;;;;;;;5.13;1.00;;;;;;;;;;4990768;28;20073;-67
2022/02/11 17:44:37;;;;;;;;;;;;;;;;;;4971234;28;20437;-67
2022/02/11 17:47:07;;;;;;;2.60;1.13;;;;;;;;;;4971213;28;19922;-68
2022/02/11 17:49:37;;;;;;;2.83;1.35;;;;;;;;;;4970859;28;20055;-67
2022/02/11 17:52:12;;;;;;;2.55;1.25;;;;;;;;;;4913140;29;20582;-69
2022/02/11 17:54:43;;;;;;;3.67;1.23;;;;;;;;;;4913205;29;20052;-62
2022/02/11 17:57:13;;;;;;;4.25;1.05;;;;;;;;;;4917297;29;20071;-62
2022/02/11 17:59:43;;;;;;;4.90;1.83;;;;;;;;;;4883195;29;20456;-62
2022/02/11 18:02:13;;;;;;;8.50;1.40;;;;;;;;;;4913197;29;20067;-62
2022/02/11 18:04:44;;;;;;;7.05;1.70;;;;;;;;;;4916958;29;20055;-67
2022/02/11 18:07:17;;;;;;;3.72;1.15;;;;;;;;;;4909928;29;20626;-69
2022/02/11 18:09:48;;;;;;;4.60;1.73;;;;;;;;;;4913227;29;20052;-69
2022/02/11 18:12:20;;;;;;;8.73;2.08;;;;;;;;;;4865895;29;20074;-68
2022/02/11 18:14:52;;;;;;;7.22;1.52;;;;;;;;;;4909340;29;20060;-69
2022/02/11 18:17:22;;;;;;;3.70;1.20;;;;;;;;;;4912365;29;20060;-71
2022/02/11 18:19:52;;;;;;;4.68;1.83;;;;;;;;;;4892878;29;20564;-69
2022/02/11 18:22:22;;;;;;;3.67;1.30;;;;;;;;;;4883794;29;20549;-69
2022/02/11 18:24:54;;;;;;;3.75;1.05;;;;;;;;;;4892870;29;20067;-71
2022/02/11 18:27:24;;;;;;;3.20;1.10;;;;;;;;;;4893045;29;20059;-70
2022/02/11 18:29:54;;;;;;;5.60;1.30;;;;;;;;;;4892895;29;20086;-69
2022/02/11 18:32:31;;;;;;;4.00;1.00;;;;;;;;;;4949785;29;20055;-69
2022/02/11 18:35:04;;;;;;;3.10;1.50;;;;;;;;;;4949417;28;20051;-69
2022/02/11 18:37:35;;;;;;;2.13;1.10;;;;;;;;;;4950182;29;20051;-69
2022/02/11 18:40:05;;;;;;;3.70;1.17;;;;;;;;;;4950920;29;20059;-69
2022/02/11 18:42:37;;;;;;;5.00;1.58;;;;;;;;;;4945722;29;20051;-68
2022/02/11 18:45:10;;;;;;;3.92;1.33;;;;;;;;;;4937820;29;20082;-69
2022/02/11 18:47:40;;;;;;;4.90;1.63;;;;;;;;;;4930519;29;20411;-69
2022/02/11 18:50:12;;;;;;;4.10;1.20;;;;;;;;;;4914321;29;20067;-69
2022/02/11 18:52:42;;;;;;;5.05;1.30;;;;;;;;;;4930117;29;20063;-70
2022/02/11 18:55:15;;;;;;;3.25;1.23;;;;;;;;;;4899729;29;20174;-69
2022/02/11 18:57:46;;;;;;;4.50;1.13;;;;;;;;;;4925428;29;20055;-69
2022/02/11 19:00:25;;;;;;;3.28;1.30;;;;;;;;;;4888995;29;20452;-68
2022/02/11 19:02:58;;;;;;;3.97;1.10;;;;;;;;;;4892240;29;20068;-67
2022/02/11 19:05:35;;;;;;;2.63;0.93;;;;;;;;;;4906812;29;20064;-66